sensor_id;sensor_type;location;lat;lon;timestamp;temperature;humidity
152;DHT22;68;48.792;9.164;2023-02-28T00:01:14;-1.40;77.80
152;DHT22;68;48.792;9.164;2023-02-28T00:03:41;-1.30;77.80
152;DHT22;68;48.792;9.164;2023-02-28T00:06:08;-1.40;77.50
152;DHT22;68;48.792;9.164;2023-02-28T00:08:36;-1.40;77.80
152;DHT22;68;48.792;9.164;2023-02-28T00:11:03;-1.50;78.00
152;DHT22;68;48.792;9.164;2023-02-28T00:13:34;-1.50;78.20
152;DHT22;68;48.792;9.164;2023-02-28T00:16:03;-1.10;78.20
152;DHT22;68;48.792;9.164;2023-02-28T00:18:30;-0.80;77.50
152;DHT22;68;48.792;9.164;2023-02-28T00:20:57;-0.60;76.50
152;DHT22;68;48.792;9.164;2023-02-28T00:23:24;-0.90;76.00
152;DHT22;68;48.792;9.164;2023-02-28T00:25:51;-1.00;77.30
152;DHT22;68;48.792;9.164;2023-02-28T00:28:18;-1.20;77.30
152;DHT22;68;48.792;9.164;2023-02-28T00:30:46;-1.30;77.80
152;DHT22;68;48.792;9.164;2023-02-28T00:33:13;-1.40;78.00
152;DHT22;68;48.792;9.164;2023-02-28T00:35:40;-1.50;78.20
152;DHT22;68;48.792;9.164;2023-02-28T00:38:07;-1.50;78.80
152;DHT22;68;48.792;9.164;2023-02-28T00:40:34;-1.20;78.70
152;DHT22;68;48.792;9.164;2023-02-28T00:43:01;-0.90;77.70
152;DHT22;68;48.792;9.164;2023-02-28T00:45:28;-0.90;77.00
152;DHT22;68;48.792;9.164;2023-02-28T00:47:58;-1.30;78.10
152;DHT22;68;48.792;9.164;2023-02-28T00:50:25;-1.50;78.90
152;DHT22;68;48.792;9.164;2023-02-28T00:52:52;-1.30;79.50
152;DHT22;68;48.792;9.164;2023-02-28T00:55:18;-1.40;79.40
152;DHT22;68;48.792;9.164;2023-02-28T00:57:45;-1.20;80.10
152;DHT22;68;48.792;9.164;2023-02-28T01:00:12;-1.00;79.00
152;DHT22;68;48.792;9.164;2023-02-28T01:02:39;-1.10;79.00
152;DHT22;68;48.792;9.164;2023-02-28T01:05:08;-1.20;79.10
152;DHT22;68;48.792;9.164;2023-02-28T01:07:35;-1.00;79.10
152;DHT22;68;48.792;9.164;2023-02-28T01:10:02;-1.10;79.00
152;DHT22;68;48.792;9.164;2023-02-28T01:12:30;-1.10;79.30
152;DHT22;68;48.792;9.164;2023-02-28T01:14:57;-1.10;79.80
152;DHT22;68;48.792;9.164;2023-02-28T01:17:24;-1.00;79.00
152;DHT22;68;48.792;9.164;2023-02-28T01:19:54;-1.30;79.60
152;DHT22;68;48.792;9.164;2023-02-28T01:22:22;-1.40;81.10
152;DHT22;68;48.792;9.164;2023-02-28T01:24:49;-1.30;81.00
152;DHT22;68;48.792;9.164;2023-02-28T01:27:15;-1.20;80.70
152;DHT22;68;48.792;9.164;2023-02-28T01:29:42;-1.00;80.40
152;DHT22;68;48.792;9.164;2023-02-28T01:32:09;-1.00;80.50
152;DHT22;68;48.792;9.164;2023-02-28T01:34:36;-0.80;80.10
152;DHT22;68;48.792;9.164;2023-02-28T01:37:03;-1.40;81.00
152;DHT22;68;48.792;9.164;2023-02-28T01:39:31;-1.30;82.40
152;DHT22;68;48.792;9.164;2023-02-28T01:41:57;-1.30;81.90
152;DHT22;68;48.792;9.164;2023-02-28T01:45:01;-1.40;82.30
152;DHT22;68;48.792;9.164;2023-02-28T01:47:31;-1.60;83.00
152;DHT22;68;48.792;9.164;2023-02-28T01:50:00;-1.60;83.10
152;DHT22;68;48.792;9.164;2023-02-28T01:52:28;-1.60;83.40
152;DHT22;68;48.792;9.164;2023-02-28T01:54:59;-1.50;83.20
152;DHT22;68;48.792;9.164;2023-02-28T01:57:30;-1.70;83.90
152;DHT22;68;48.792;9.164;2023-02-28T02:00:05;-1.70;84.00
152;DHT22;68;48.792;9.164;2023-02-28T02:02:36;-1.70;84.20
152;DHT22;68;48.792;9.164;2023-02-28T02:05:06;-1.60;84.20
152;DHT22;68;48.792;9.164;2023-02-28T02:07:35;-1.80;84.70
152;DHT22;68;48.792;9.164;2023-02-28T02:10:10;-1.90;85.40
152;DHT22;68;48.792;9.164;2023-02-28T02:12:54;-2.00;85.60
152;DHT22;68;48.792;9.164;2023-02-28T02:15:25;-2.00;86.00
152;DHT22;68;48.792;9.164;2023-02-28T02:17:57;-1.90;86.30
152;DHT22;68;48.792;9.164;2023-02-28T02:20:44;-1.80;85.80
152;DHT22;68;48.792;9.164;2023-02-28T02:23:42;-2.00;86.40
152;DHT22;68;48.792;9.164;2023-02-28T02:26:30;-2.10;86.90
152;DHT22;68;48.792;9.164;2023-02-28T02:29:27;-1.90;86.80
152;DHT22;68;48.792;9.164;2023-02-28T02:34:56;-1.60;85.80
152;DHT22;68;48.792;9.164;2023-02-28T02:37:33;-1.80;86.40
152;DHT22;68;48.792;9.164;2023-02-28T02:40:08;-1.60;86.60
152;DHT22;68;48.792;9.164;2023-02-28T02:42:41;-1.70;86.40
152;DHT22;68;48.792;9.164;2023-02-28T02:45:12;-1.80;86.60
152;DHT22;68;48.792;9.164;2023-02-28T02:47:43;-1.80;87.40
152;DHT22;68;48.792;9.164;2023-02-28T02:50:15;-1.70;87.20
152;DHT22;68;48.792;9.164;2023-02-28T02:52:49;-1.80;87.30
152;DHT22;68;48.792;9.164;2023-02-28T02:55:18;-1.60;87.20
152;DHT22;68;48.792;9.164;2023-02-28T02:57:48;-1.40;86.80
152;DHT22;68;48.792;9.164;2023-02-28T03:00:17;-1.30;86.30
152;DHT22;68;48.792;9.164;2023-02-28T03:02:47;-1.20;86.10
152;DHT22;68;48.792;9.164;2023-02-28T03:05:20;-1.10;85.60
152;DHT22;68;48.792;9.164;2023-02-28T03:07:48;-1.20;85.80
152;DHT22;68;48.792;9.164;2023-02-28T03:10:30;-1.40;86.60
152;DHT22;68;48.792;9.164;2023-02-28T03:13:21;-1.60;87.00
152;DHT22;68;48.792;9.164;2023-02-28T03:16:01;-1.40;87.40
152;DHT22;68;48.792;9.164;2023-02-28T03:18:42;-1.30;86.90
152;DHT22;68;48.792;9.164;2023-02-28T03:21:20;-1.40;87.40
152;DHT22;68;48.792;9.164;2023-02-28T03:23:56;-1.50;87.50
152;DHT22;68;48.792;9.164;2023-02-28T03:26:26;-1.40;87.90
152;DHT22;68;48.792;9.164;2023-02-28T03:29:00;-1.60;87.50
152;DHT22;68;48.792;9.164;2023-02-28T03:31:30;-1.60;88.40
152;DHT22;68;48.792;9.164;2023-02-28T03:34:03;-1.60;88.40
152;DHT22;68;48.792;9.164;2023-02-28T03:36:35;-1.80;89.20
152;DHT22;68;48.792;9.164;2023-02-28T03:39:09;-1.80;89.60
152;DHT22;68;48.792;9.164;2023-02-28T03:41:42;-1.90;90.40
152;DHT22;68;48.792;9.164;2023-02-28T03:44:13;-1.90;90.80
152;DHT22;68;48.792;9.164;2023-02-28T03:46:45;-1.90;90.80
152;DHT22;68;48.792;9.164;2023-02-28T03:49:16;-1.90;90.90
152;DHT22;68;48.792;9.164;2023-02-28T03:51:46;-1.90;91.00
152;DHT22;68;48.792;9.164;2023-02-28T03:54:16;-1.70;90.80
152;DHT22;68;48.792;9.164;2023-02-28T03:56:48;-1.70;90.50
152;DHT22;68;48.792;9.164;2023-02-28T03:59:22;-1.80;90.80
152;DHT22;68;48.792;9.164;2023-02-28T04:01:51;-1.90;91.40
152;DHT22;68;48.792;9.164;2023-02-28T04:04:18;-1.70;91.60
152;DHT22;68;48.792;9.164;2023-02-28T04:06:49;-1.60;91.50
152;DHT22;68;48.792;9.164;2023-02-28T04:09:16;-1.60;90.10
152;DHT22;68;48.792;9.164;2023-02-28T04:11:47;-1.80;90.90
152;DHT22;68;48.792;9.164;2023-02-28T04:14:16;-1.70;91.20
152;DHT22;68;48.792;9.164;2023-02-28T04:16:44;-1.80;91.30
152;DHT22;68;48.792;9.164;2023-02-28T04:19:12;-1.70;91.00
152;DHT22;68;48.792;9.164;2023-02-28T04:21:41;-1.70;91.40
152;DHT22;68;48.792;9.164;2023-02-28T04:24:12;-1.40;89.50
152;DHT22;68;48.792;9.164;2023-02-28T04:26:41;-1.40;89.50
152;DHT22;68;48.792;9.164;2023-02-28T04:29:13;-1.50;90.10
152;DHT22;68;48.792;9.164;2023-02-28T04:31:40;-1.70;90.90
152;DHT22;68;48.792;9.164;2023-02-28T04:34:07;-1.80;91.80
152;DHT22;68;48.792;9.164;2023-02-28T04:36:34;-1.80;91.90
152;DHT22;68;48.792;9.164;2023-02-28T04:39:01;-1.80;91.70
152;DHT22;68;48.792;9.164;2023-02-28T04:41:30;-1.80;91.80
152;DHT22;68;48.792;9.164;2023-02-28T04:43:57;-1.80;92.20
152;DHT22;68;48.792;9.164;2023-02-28T04:46:24;-1.70;92.10
152;DHT22;68;48.792;9.164;2023-02-28T04:48:50;-1.70;91.70
152;DHT22;68;48.792;9.164;2023-02-28T04:51:19;-1.70;91.70
152;DHT22;68;48.792;9.164;2023-02-28T04:53:47;-1.60;91.80
152;DHT22;68;48.792;9.164;2023-02-28T04:56:16;-1.50;90.90
152;DHT22;68;48.792;9.164;2023-02-28T04:58:44;-1.50;91.20
152;DHT22;68;48.792;9.164;2023-02-28T05:01:23;-1.40;90.50
152;DHT22;68;48.792;9.164;2023-02-28T05:03:52;-1.50;90.50
152;DHT22;68;48.792;9.164;2023-02-28T05:06:20;-1.60;90.70
152;DHT22;68;48.792;9.164;2023-02-28T05:08:47;-1.50;91.20
152;DHT22;68;48.792;9.164;2023-02-28T05:11:16;-1.10;91.30
152;DHT22;68;48.792;9.164;2023-02-28T05:13:45;-1.00;89.30
152;DHT22;68;48.792;9.164;2023-02-28T05:16:13;-1.40;89.80
152;DHT22;68;48.792;9.164;2023-02-28T05:18:40;-1.50;90.50
152;DHT22;68;48.792;9.164;2023-02-28T05:21:26;-1.60;91.10
152;DHT22;68;48.792;9.164;2023-02-28T05:23:54;-1.40;91.20
152;DHT22;68;48.792;9.164;2023-02-28T05:26:21;-1.30;90.80
152;DHT22;68;48.792;9.164;2023-02-28T05:28:50;-1.00;90.30
152;DHT22;68;48.792;9.164;2023-02-28T05:31:17;-0.90;89.30
152;DHT22;68;48.792;9.164;2023-02-28T05:33:43;-1.00;89.00
152;DHT22;68;48.792;9.164;2023-02-28T05:36:10;-1.00;89.20
152;DHT22;68;48.792;9.164;2023-02-28T05:38:37;-0.80;89.20
152;DHT22;68;48.792;9.164;2023-02-28T05:41:07;-0.90;88.70
152;DHT22;68;48.792;9.164;2023-02-28T05:43:34;-0.80;88.90
152;DHT22;68;48.792;9.164;2023-02-28T05:46:04;-1.10;88.90
152;DHT22;68;48.792;9.164;2023-02-28T05:48:32;-1.30;90.50
152;DHT22;68;48.792;9.164;2023-02-28T05:51:01;-1.10;90.60
152;DHT22;68;48.792;9.164;2023-02-28T05:53:29;-1.00;90.10
152;DHT22;68;48.792;9.164;2023-02-28T05:55:56;-1.20;89.90
152;DHT22;68;48.792;9.164;2023-02-28T05:58:23;-1.40;91.10
152;DHT22;68;48.792;9.164;2023-02-28T06:00:54;-1.50;91.70
152;DHT22;68;48.792;9.164;2023-02-28T06:03:22;-1.50;92.10
152;DHT22;68;48.792;9.164;2023-02-28T06:05:49;-1.50;92.10
152;DHT22;68;48.792;9.164;2023-02-28T06:08:16;-1.40;91.80
152;DHT22;68;48.792;9.164;2023-02-28T06:10:43;-1.40;91.10
152;DHT22;68;48.792;9.164;2023-02-28T06:13:13;-1.50;91.70
152;DHT22;68;48.792;9.164;2023-02-28T06:15:40;-1.40;92.20
152;DHT22;68;48.792;9.164;2023-02-28T06:18:07;-1.40;91.70
152;DHT22;68;48.792;9.164;2023-02-28T06:20:35;-1.50;92.10
152;DHT22;68;48.792;9.164;2023-02-28T06:23:02;-1.50;92.30
152;DHT22;68;48.792;9.164;2023-02-28T06:25:29;-1.40;92.30
152;DHT22;68;48.792;9.164;2023-02-28T06:27:55;-1.40;91.80
152;DHT22;68;48.792;9.164;2023-02-28T06:30:22;-1.50;92.10
152;DHT22;68;48.792;9.164;2023-02-28T06:32:52;-1.40;91.80
152;DHT22;68;48.792;9.164;2023-02-28T06:35:19;-1.50;92.10
152;DHT22;68;48.792;9.164;2023-02-28T06:37:47;-1.30;92.40
152;DHT22;68;48.792;9.164;2023-02-28T06:40:15;-1.20;91.30
152;DHT22;68;48.792;9.164;2023-02-28T06:42:41;-1.30;91.60
152;DHT22;68;48.792;9.164;2023-02-28T06:45:09;-1.30;91.60
152;DHT22;68;48.792;9.164;2023-02-28T06:47:37;-1.30;91.30
152;DHT22;68;48.792;9.164;2023-02-28T06:50:06;-1.30;91.30
152;DHT22;68;48.792;9.164;2023-02-28T06:52:33;-1.40;91.20
152;DHT22;68;48.792;9.164;2023-02-28T06:55:03;-1.30;91.00
152;DHT22;68;48.792;9.164;2023-02-28T06:57:31;-1.30;91.10
152;DHT22;68;48.792;9.164;2023-02-28T06:59:58;-1.30;91.20
152;DHT22;68;48.792;9.164;2023-02-28T07:02:25;-1.30;91.10
152;DHT22;68;48.792;9.164;2023-02-28T07:04:52;-1.30;91.10
152;DHT22;68;48.792;9.164;2023-02-28T07:07:19;-1.30;91.00
152;DHT22;68;48.792;9.164;2023-02-28T07:09:46;-1.30;91.10
152;DHT22;68;48.792;9.164;2023-02-28T07:12:17;-1.30;90.90
152;DHT22;68;48.792;9.164;2023-02-28T07:14:44;-1.30;91.00
152;DHT22;68;48.792;9.164;2023-02-28T07:17:11;-1.40;91.00
152;DHT22;68;48.792;9.164;2023-02-28T07:19:39;-1.40;91.00
152;DHT22;68;48.792;9.164;2023-02-28T07:22:06;-1.40;91.10
152;DHT22;68;48.792;9.164;2023-02-28T07:24:34;-1.30;90.90
152;DHT22;68;48.792;9.164;2023-02-28T07:27:01;-1.30;90.80
152;DHT22;68;48.792;9.164;2023-02-28T07:29:32;-1.20;90.30
152;DHT22;68;48.792;9.164;2023-02-28T07:31:58;-1.10;90.20
152;DHT22;68;48.792;9.164;2023-02-28T07:34:25;-1.20;90.20
152;DHT22;68;48.792;9.164;2023-02-28T07:36:53;-1.20;90.30
152;DHT22;68;48.792;9.164;2023-02-28T07:39:20;-0.90;90.70
152;DHT22;68;48.792;9.164;2023-02-28T07:41:47;-0.90;89.50
152;DHT22;68;48.792;9.164;2023-02-28T07:44:14;-1.00;89.20
152;DHT22;68;48.792;9.164;2023-02-28T07:46:42;-1.10;89.60
152;DHT22;68;48.792;9.164;2023-02-28T07:49:09;-1.10;89.60
152;DHT22;68;48.792;9.164;2023-02-28T07:51:36;-1.20;89.80
152;DHT22;68;48.792;9.164;2023-02-28T07:54:03;-1.20;89.90
152;DHT22;68;48.792;9.164;2023-02-28T07:56:29;-1.00;89.80
152;DHT22;68;48.792;9.164;2023-02-28T07:58:56;-1.00;89.20
152;DHT22;68;48.792;9.164;2023-02-28T08:01:23;-1.00;89.80
152;DHT22;68;48.792;9.164;2023-02-28T08:03:51;-0.90;89.70
152;DHT22;68;48.792;9.164;2023-02-28T08:06:20;-0.80;88.80
152;DHT22;68;48.792;9.164;2023-02-28T08:08:47;-0.80;88.60
152;DHT22;68;48.792;9.164;2023-02-28T08:11:15;-0.70;88.80
152;DHT22;68;48.792;9.164;2023-02-28T08:13:42;-0.70;88.30
152;DHT22;68;48.792;9.164;2023-02-28T08:16:10;-0.70;88.20
152;DHT22;68;48.792;9.164;2023-02-28T08:18:37;-0.70;88.30
152;DHT22;68;48.792;9.164;2023-02-28T08:21:09;-0.60;88.10
152;DHT22;68;48.792;9.164;2023-02-28T08:23:36;-0.60;87.70
152;DHT22;68;48.792;9.164;2023-02-28T08:26:03;-0.60;87.30
152;DHT22;68;48.792;9.164;2023-02-28T08:28:30;-0.50;87.50
152;DHT22;68;48.792;9.164;2023-02-28T08:30:57;-0.40;87.30
152;DHT22;68;48.792;9.164;2023-02-28T08:33:26;-0.50;86.60
152;DHT22;68;48.792;9.164;2023-02-28T08:35:53;-0.40;86.90
152;DHT22;68;48.792;9.164;2023-02-28T08:38:22;-0.50;86.30
152;DHT22;68;48.792;9.164;2023-02-28T08:40:49;-0.60;86.90
152;DHT22;68;48.792;9.164;2023-02-28T08:43:16;-0.50;87.00
152;DHT22;68;48.792;9.164;2023-02-28T08:45:42;-0.50;86.50
152;DHT22;68;48.792;9.164;2023-02-28T08:48:09;-0.40;86.00
152;DHT22;68;48.792;9.164;2023-02-28T08:50:36;-0.50;86.20
152;DHT22;68;48.792;9.164;2023-02-28T08:53:03;-0.40;86.50
152;DHT22;68;48.792;9.164;2023-02-28T08:55:31;-0.20;85.10
152;DHT22;68;48.792;9.164;2023-02-28T08:57:58;-0.10;83.80
152;DHT22;68;48.792;9.164;2023-02-28T09:00:26;-0.20;83.70
152;DHT22;68;48.792;9.164;2023-02-28T09:02:53;-0.30;83.60
152;DHT22;68;48.792;9.164;2023-02-28T09:05:20;-0.10;83.80
152;DHT22;68;48.792;9.164;2023-02-28T09:07:47;-0.20;83.10
152;DHT22;68;48.792;9.164;2023-02-28T09:10:13;-0.10;83.50
152;DHT22;68;48.792;9.164;2023-02-28T09:12:44;0.10;83.30
152;DHT22;68;48.792;9.164;2023-02-28T09:15:12;0.20;82.30
152;DHT22;68;48.792;9.164;2023-02-28T09:17:39;0.20;82.10
152;DHT22;68;48.792;9.164;2023-02-28T09:20:07;0.20;82.00
152;DHT22;68;48.792;9.164;2023-02-28T09:22:37;-0.10;82.10
152;DHT22;68;48.792;9.164;2023-02-28T09:25:04;-0.10;82.90
152;DHT22;68;48.792;9.164;2023-02-28T09:27:31;0.00;83.00
152;DHT22;68;48.792;9.164;2023-02-28T09:29:59;0.20;82.10
152;DHT22;68;48.792;9.164;2023-02-28T09:32:26;0.50;82.10
152;DHT22;68;48.792;9.164;2023-02-28T09:34:53;0.40;81.00
152;DHT22;68;48.792;9.164;2023-02-28T09:37:19;0.50;81.10
152;DHT22;68;48.792;9.164;2023-02-28T09:39:46;0.50;80.50
152;DHT22;68;48.792;9.164;2023-02-28T09:42:21;0.50;80.60
152;DHT22;68;48.792;9.164;2023-02-28T09:44:50;0.40;80.70
152;DHT22;68;48.792;9.164;2023-02-28T09:47:27;0.50;80.90
152;DHT22;68;48.792;9.164;2023-02-28T09:49:59;0.40;80.80
152;DHT22;68;48.792;9.164;2023-02-28T09:52:30;0.40;81.20
152;DHT22;68;48.792;9.164;2023-02-28T09:55:19;0.50;80.70
152;DHT22;68;48.792;9.164;2023-02-28T09:57:46;0.40;80.00
152;DHT22;68;48.792;9.164;2023-02-28T10:00:16;0.60;80.60
152;DHT22;68;48.792;9.164;2023-02-28T10:02:58;0.60;80.20
152;DHT22;68;48.792;9.164;2023-02-28T10:05:33;0.70;79.60
152;DHT22;68;48.792;9.164;2023-02-28T10:08:05;0.80;80.30
152;DHT22;68;48.792;9.164;2023-02-28T10:10:38;1.00;79.80
152;DHT22;68;48.792;9.164;2023-02-28T10:13:14;1.00;79.20
152;DHT22;68;48.792;9.164;2023-02-28T10:15:45;1.00;78.70
152;DHT22;68;48.792;9.164;2023-02-28T10:18:21;0.80;78.70
152;DHT22;68;48.792;9.164;2023-02-28T10:20:51;0.70;79.30
152;DHT22;68;48.792;9.164;2023-02-28T10:23:21;0.60;79.60
152;DHT22;68;48.792;9.164;2023-02-28T10:25:54;0.60;79.50
152;DHT22;68;48.792;9.164;2023-02-28T10:28:29;0.60;79.30
152;DHT22;68;48.792;9.164;2023-02-28T10:30:57;0.90;79.80
152;DHT22;68;48.792;9.164;2023-02-28T10:33:30;1.00;79.10
152;DHT22;68;48.792;9.164;2023-02-28T10:35:58;1.00;78.10
152;DHT22;68;48.792;9.164;2023-02-28T10:38:32;1.10;78.40
152;DHT22;68;48.792;9.164;2023-02-28T10:41:07;1.00;78.10
152;DHT22;68;48.792;9.164;2023-02-28T10:43:37;1.20;78.10
152;DHT22;68;48.792;9.164;2023-02-28T10:46:12;1.40;77.50
152;DHT22;68;48.792;9.164;2023-02-28T10:48:44;1.60;77.00
152;DHT22;68;48.792;9.164;2023-02-28T10:51:14;1.60;76.90
152;DHT22;68;48.792;9.164;2023-02-28T10:53:48;1.70;76.40
152;DHT22;68;48.792;9.164;2023-02-28T10:56:20;1.70;75.70
152;DHT22;68;48.792;9.164;2023-02-28T10:58:54;1.70;75.60
152;DHT22;68;48.792;9.164;2023-02-28T11:01:22;1.60;76.50
152;DHT22;68;48.792;9.164;2023-02-28T11:03:51;1.90;76.10
152;DHT22;68;48.792;9.164;2023-02-28T11:06:20;2.40;75.50
152;DHT22;68;48.792;9.164;2023-02-28T11:08:49;2.40;73.20
152;DHT22;68;48.792;9.164;2023-02-28T11:11:18;2.50;73.80
152;DHT22;68;48.792;9.164;2023-02-28T11:13:47;2.70;74.20
152;DHT22;68;48.792;9.164;2023-02-28T11:16:15;3.70;72.60
152;DHT22;68;48.792;9.164;2023-02-28T11:18:47;4.60;67.40
152;DHT22;68;48.792;9.164;2023-02-28T11:21:22;4.70;68.80
152;DHT22;68;48.792;9.164;2023-02-28T11:23:51;5.30;67.50
152;DHT22;68;48.792;9.164;2023-02-28T11:26:36;5.40;66.00
152;DHT22;68;48.792;9.164;2023-02-28T11:29:10;6.00;64.10
152;DHT22;68;48.792;9.164;2023-02-28T11:31:37;6.20;64.40
152;DHT22;68;48.792;9.164;2023-02-28T11:34:24;6.10;64.00
152;DHT22;68;48.792;9.164;2023-02-28T11:36:56;6.50;63.80
152;DHT22;68;48.792;9.164;2023-02-28T11:39:24;7.50;60.30
152;DHT22;68;48.792;9.164;2023-02-28T11:42:04;6.80;62.30
152;DHT22;68;48.792;9.164;2023-02-28T11:44:45;6.80;61.50
152;DHT22;68;48.792;9.164;2023-02-28T11:47:20;6.30;62.80
152;DHT22;68;48.792;9.164;2023-02-28T11:50:02;7.00;63.10
152;DHT22;68;48.792;9.164;2023-02-28T11:52:36;7.60;59.50
152;DHT22;68;48.792;9.164;2023-02-28T11:55:16;7.50;60.20
152;DHT22;68;48.792;9.164;2023-02-28T11:57:56;6.40;62.60
152;DHT22;68;48.792;9.164;2023-02-28T12:00:38;7.60;61.20
152;DHT22;68;48.792;9.164;2023-02-28T12:03:15;7.90;57.90
152;DHT22;68;48.792;9.164;2023-02-28T12:05:45;6.80;60.20
152;DHT22;68;48.792;9.164;2023-02-28T12:08:25;5.50;64.10
152;DHT22;68;48.792;9.164;2023-02-28T12:11:00;5.20;66.10
152;DHT22;68;48.792;9.164;2023-02-28T12:13:34;5.80;63.30
152;DHT22;68;48.792;9.164;2023-02-28T12:16:27;5.20;65.10
152;DHT22;68;48.792;9.164;2023-02-28T12:19:07;6.50;63.90
152;DHT22;68;48.792;9.164;2023-02-28T12:21:46;5.10;65.80
152;DHT22;68;48.792;9.164;2023-02-28T12:24:44;5.50;66.20
152;DHT22;68;48.792;9.164;2023-02-28T12:27:17;6.60;62.10
152;DHT22;68;48.792;9.164;2023-02-28T12:29:49;6.40;60.70
152;DHT22;68;48.792;9.164;2023-02-28T12:32:21;5.80;64.10
152;DHT22;68;48.792;9.164;2023-02-28T12:34:52;7.30;62.20
152;DHT22;68;48.792;9.164;2023-02-28T12:37:24;7.50;59.30
152;DHT22;68;48.792;9.164;2023-02-28T12:40:00;6.70;61.20
152;DHT22;68;48.792;9.164;2023-02-28T12:42:30;6.30;61.50
152;DHT22;68;48.792;9.164;2023-02-28T12:45:00;6.30;62.60
152;DHT22;68;48.792;9.164;2023-02-28T12:47:27;7.10;60.60
152;DHT22;68;48.792;9.164;2023-02-28T12:49:58;6.20;62.00
152;DHT22;68;48.792;9.164;2023-02-28T12:52:30;7.00;61.80
152;DHT22;68;48.792;9.164;2023-02-28T12:55:03;6.80;61.40
152;DHT22;68;48.792;9.164;2023-02-28T12:57:36;7.00;61.40
152;DHT22;68;48.792;9.164;2023-02-28T13:00:11;6.10;62.80
152;DHT22;68;48.792;9.164;2023-02-28T13:02:58;6.70;61.90
152;DHT22;68;48.792;9.164;2023-02-28T13:11:33;6.50;62.80
152;DHT22;68;48.792;9.164;2023-02-28T13:14:06;6.90;61.20
152;DHT22;68;48.792;9.164;2023-02-28T13:16:59;5.80;64.40
152;DHT22;68;48.792;9.164;2023-02-28T13:19:29;5.90;64.20
152;DHT22;68;48.792;9.164;2023-02-28T13:21:57;5.00;64.70
152;DHT22;68;48.792;9.164;2023-02-28T13:24:41;5.40;64.90
152;DHT22;68;48.792;9.164;2023-02-28T13:27:22;5.60;63.80
152;DHT22;68;48.792;9.164;2023-02-28T13:29:51;5.00;64.50
152;DHT22;68;48.792;9.164;2023-02-28T13:32:33;4.90;65.10
152;DHT22;68;48.792;9.164;2023-02-28T13:38:16;5.40;65.10
152;DHT22;68;48.792;9.164;2023-02-28T13:40:43;5.80;63.80
152;DHT22;68;48.792;9.164;2023-02-28T13:43:12;5.30;63.70
152;DHT22;68;48.792;9.164;2023-02-28T13:46:09;5.00;64.80
152;DHT22;68;48.792;9.164;2023-02-28T13:48:37;5.00;64.70
152;DHT22;68;48.792;9.164;2023-02-28T13:54:17;5.00;65.00
152;DHT22;68;48.792;9.164;2023-02-28T13:56:52;4.80;65.50
152;DHT22;68;48.792;9.164;2023-02-28T13:59:29;4.60;65.80
152;DHT22;68;48.792;9.164;2023-02-28T14:02:10;4.90;66.80
152;DHT22;68;48.792;9.164;2023-02-28T14:05:02;5.00;65.30
152;DHT22;68;48.792;9.164;2023-02-28T14:07:33;5.00;65.00
152;DHT22;68;48.792;9.164;2023-02-28T14:10:06;5.00;65.40
152;DHT22;68;48.792;9.164;2023-02-28T14:12:54;5.30;64.30
152;DHT22;68;48.792;9.164;2023-02-28T14:18:33;5.10;64.80
152;DHT22;68;48.792;9.164;2023-02-28T14:21:09;5.20;65.40
152;DHT22;68;48.792;9.164;2023-02-28T14:27:21;5.60;65.10
152;DHT22;68;48.792;9.164;2023-02-28T14:30:15;5.80;64.10
152;DHT22;68;48.792;9.164;2023-02-28T14:32:51;6.00;63.50
152;DHT22;68;48.792;9.164;2023-02-28T14:35:40;5.60;63.20
152;DHT22;68;48.792;9.164;2023-02-28T14:38:18;5.50;64.40
152;DHT22;68;48.792;9.164;2023-02-28T14:40:47;5.10;64.60
152;DHT22;68;48.792;9.164;2023-02-28T14:43:20;5.00;65.30
152;DHT22;68;48.792;9.164;2023-02-28T14:45:50;4.90;65.40
152;DHT22;68;48.792;9.164;2023-02-28T14:48:19;4.90;65.00
152;DHT22;68;48.792;9.164;2023-02-28T14:50:52;5.20;65.80
152;DHT22;68;48.792;9.164;2023-02-28T14:53:21;5.10;65.00
152;DHT22;68;48.792;9.164;2023-02-28T14:55:49;5.40;64.90
152;DHT22;68;48.792;9.164;2023-02-28T14:58:23;5.70;64.50
152;DHT22;68;48.792;9.164;2023-02-28T15:00:51;5.40;64.70
152;DHT22;68;48.792;9.164;2023-02-28T15:03:21;5.60;64.70
152;DHT22;68;48.792;9.164;2023-02-28T15:05:54;5.50;65.10
152;DHT22;68;48.792;9.164;2023-02-28T15:08:21;5.60;64.40
152;DHT22;68;48.792;9.164;2023-02-28T15:10:53;5.50;65.20
152;DHT22;68;48.792;9.164;2023-02-28T15:13:20;5.50;64.90
152;DHT22;68;48.792;9.164;2023-02-28T15:15:52;5.50;65.20
152;DHT22;68;48.792;9.164;2023-02-28T15:18:28;5.50;65.90
152;DHT22;68;48.792;9.164;2023-02-28T15:21:02;5.40;64.90
152;DHT22;68;48.792;9.164;2023-02-28T15:23:30;5.20;65.00
152;DHT22;68;48.792;9.164;2023-02-28T15:25:57;5.00;65.40
152;DHT22;68;48.792;9.164;2023-02-28T15:28:25;5.00;65.90
152;DHT22;68;48.792;9.164;2023-02-28T15:30:54;5.00;66.20
152;DHT22;68;48.792;9.164;2023-02-28T15:33:23;5.20;66.10
152;DHT22;68;48.792;9.164;2023-02-28T15:35:51;5.30;66.10
152;DHT22;68;48.792;9.164;2023-02-28T15:38:22;5.20;66.00
152;DHT22;68;48.792;9.164;2023-02-28T15:40:51;5.00;66.50
152;DHT22;68;48.792;9.164;2023-02-28T15:43:26;5.00;66.20
152;DHT22;68;48.792;9.164;2023-02-28T15:45:57;4.90;66.50
152;DHT22;68;48.792;9.164;2023-02-28T15:48:27;4.80;66.80
152;DHT22;68;48.792;9.164;2023-02-28T15:50:56;4.80;67.00
152;DHT22;68;48.792;9.164;2023-02-28T15:53:27;4.90;67.40
152;DHT22;68;48.792;9.164;2023-02-28T15:56:00;4.80;67.10
152;DHT22;68;48.792;9.164;2023-02-28T15:58:27;4.70;67.30
152;DHT22;68;48.792;9.164;2023-02-28T16:01:16;4.70;67.00
152;DHT22;68;48.792;9.164;2023-02-28T16:03:46;4.70;67.60
152;DHT22;68;48.792;9.164;2023-02-28T16:06:38;4.80;67.50
152;DHT22;68;48.792;9.164;2023-02-28T16:09:10;4.90;67.30
152;DHT22;68;48.792;9.164;2023-02-28T16:11:40;4.80;67.50
152;DHT22;68;48.792;9.164;2023-02-28T16:14:13;4.80;67.70
152;DHT22;68;48.792;9.164;2023-02-28T16:16:42;4.80;67.70
152;DHT22;68;48.792;9.164;2023-02-28T16:19:09;4.80;67.40
152;DHT22;68;48.792;9.164;2023-02-28T16:21:36;4.90;67.40
152;DHT22;68;48.792;9.164;2023-02-28T16:24:03;4.70;67.40
152;DHT22;68;48.792;9.164;2023-02-28T16:26:31;4.80;68.50
152;DHT22;68;48.792;9.164;2023-02-28T16:28:59;4.70;67.90
152;DHT22;68;48.792;9.164;2023-02-28T16:31:27;4.60;68.50
152;DHT22;68;48.792;9.164;2023-02-28T16:33:54;4.50;68.40
152;DHT22;68;48.792;9.164;2023-02-28T16:36:23;4.40;68.90
152;DHT22;68;48.792;9.164;2023-02-28T16:38:50;4.30;69.00
152;DHT22;68;48.792;9.164;2023-02-28T16:41:19;4.40;69.60
152;DHT22;68;48.792;9.164;2023-02-28T16:43:51;4.50;69.40
152;DHT22;68;48.792;9.164;2023-02-28T16:46:19;4.50;69.10
152;DHT22;68;48.792;9.164;2023-02-28T16:48:47;4.40;69.10
152;DHT22;68;48.792;9.164;2023-02-28T16:51:16;4.30;69.20
152;DHT22;68;48.792;9.164;2023-02-28T16:53:44;4.30;69.30
152;DHT22;68;48.792;9.164;2023-02-28T16:56:15;4.30;70.00
152;DHT22;68;48.792;9.164;2023-02-28T16:58:42;4.20;70.00
152;DHT22;68;48.792;9.164;2023-02-28T17:01:10;4.00;69.60
152;DHT22;68;48.792;9.164;2023-02-28T17:03:38;4.00;70.10
152;DHT22;68;48.792;9.164;2023-02-28T17:06:06;4.10;69.60
152;DHT22;68;48.792;9.164;2023-02-28T17:08:33;3.90;69.90
152;DHT22;68;48.792;9.164;2023-02-28T17:11:00;3.90;70.10
152;DHT22;68;48.792;9.164;2023-02-28T17:13:28;3.80;70.10
152;DHT22;68;48.792;9.164;2023-02-28T17:15:54;3.80;70.30
152;DHT22;68;48.792;9.164;2023-02-28T17:18:23;3.70;70.60
152;DHT22;68;48.792;9.164;2023-02-28T17:20:49;3.70;70.50
152;DHT22;68;48.792;9.164;2023-02-28T17:23:16;3.70;70.60
152;DHT22;68;48.792;9.164;2023-02-28T17:25:43;3.60;70.90
152;DHT22;68;48.792;9.164;2023-02-28T17:28:19;3.60;71.20
152;DHT22;68;48.792;9.164;2023-02-28T17:30:45;3.50;71.50
152;DHT22;68;48.792;9.164;2023-02-28T17:33:14;3.40;71.70
152;DHT22;68;48.792;9.164;2023-02-28T17:35:42;3.40;72.10
152;DHT22;68;48.792;9.164;2023-02-28T17:38:15;3.30;72.50
152;DHT22;68;48.792;9.164;2023-02-28T17:40:41;3.20;72.90
152;DHT22;68;48.792;9.164;2023-02-28T17:43:08;3.20;73.60
152;DHT22;68;48.792;9.164;2023-02-28T17:45:35;3.10;74.10